Time;durP1;ratioP1;P1;durP2;ratioP2;P2;SDS_P1;SDS_P2;PMS_P1;PMS_P2;Temp;Humidity;BMP_temperature;BMP_pressure;BME280_temperature;BME280_humidity;BME280_pressure;Samples;Min_cycle;Max_cycle;Signal;HPM_P1;HPM_P2
2021/06/04 00:02:08;;;;;;;6.83;3.90;;;;;;;16.65;86.75;101357.91;128590;1101;62043;-80
2021/06/04 00:04:35;;;;;;;5.73;4.13;;;;;;;16.65;85.94;101357.91;128608;1101;62366;-79
2021/06/04 00:07:03;;;;;;;6.53;3.83;;;;;;;16.66;85.79;101370.30;128394;1103;62897;-79
2021/06/04 00:09:30;;;;;;;6.00;3.80;;;;;;;16.67;85.79;101365.76;128389;1104;62061;-79
2021/06/04 00:12:00;;;;;;;6.23;3.47;;;;;;;16.68;86.00;101365.56;128411;1102;61414;-80
2021/06/04 00:14:36;;;;;;;5.60;4.17;;;;;;;16.70;85.52;101360.84;128418;1102;62051;-80
2021/06/04 00:17:14;;;;;;;5.40;3.47;;;;;;;16.71;85.57;101364.34;128406;1101;62119;-79
2021/06/04 00:19:42;;;;;;;7.30;3.10;;;;;;;16.71;84.80;101361.66;128559;1101;61989;-79
2021/06/04 00:22:14;;;;;;;5.17;3.53;;;;;;;16.71;84.63;101356.30;128522;1101;61968;-80
2021/06/04 00:24:45;;;;;;;5.90;3.50;;;;;;;16.72;84.58;101355.26;128637;1101;62231;-78
2021/06/04 00:27:13;;;;;;;5.30;3.90;;;;;;;16.75;85.21;101356.73;128453;1102;61701;-79
2021/06/04 00:29:44;;;;;;;6.37;3.73;;;;;;;16.74;85.20;101349.70;128405;1104;61416;-79
2021/06/04 00:32:14;;;;;;;7.90;4.97;;;;;;;16.72;85.69;101347.22;128402;1104;63276;-79
2021/06/04 00:34:42;;;;;;;5.20;4.13;;;;;;;16.75;85.63;101340.66;128304;1104;62440;-79
2021/06/04 00:37:09;;;;;;;6.17;4.60;;;;;;;16.74;85.87;101344.35;128539;1101;61943;-78
2021/06/04 00:39:38;;;;;;;6.67;4.77;;;;;;;16.75;85.78;101346.02;128600;1101;61954;-78
2021/06/04 00:42:25;;;;;;;5.30;4.20;;;;;;;16.72;85.88;101344.55;128354;1104;62543;-79
2021/06/04 00:44:57;;;;;;;6.20;4.40;;;;;;;16.76;85.96;101347.66;128374;1104;62079;-79
2021/06/04 00:47:24;;;;;;;4.83;3.93;;;;;;;16.78;85.75;101345.61;128349;1102;62087;-80
2021/06/04 00:49:52;;;;;;;6.83;4.83;;;;;;;16.83;85.97;101346.70;128579;1101;62010;-80
2021/06/04 00:52:24;;;;;;;5.30;4.33;;;;;;;16.86;86.11;101338.25;128358;1104;62443;-80
2021/06/04 00:54:55;;;;;;;6.87;3.73;;;;;;;16.90;85.76;101344.05;128536;1101;62116;-80
2021/06/04 00:57:22;;;;;;;5.03;4.37;;;;;;;16.89;85.44;101343.22;128408;1104;62374;-80
2021/06/04 01:00:00;;;;;;;9.30;5.17;;;;;;;16.88;85.41;101340.73;128586;1101;62100;-80
2021/06/04 01:02:29;;;;;;;7.17;4.60;;;;;;;16.86;85.21;101332.89;128589;1101;62068;-80
2021/06/04 01:04:57;;;;;;;5.27;4.30;;;;;;;16.85;85.43;101331.25;128363;1104;62004;-79
2021/06/04 01:07:26;;;;;;;5.33;4.07;;;;;;;16.87;85.94;101336.39;128637;1101;61977;-80
2021/06/04 01:10:13;;;;;;;5.43;4.43;;;;;;;16.89;86.07;101326.30;128583;1101;62868;-80
2021/06/04 01:12:55;;;;;;;5.80;4.33;;;;;;;16.92;85.95;101331.27;128394;1101;62490;-79
2021/06/04 01:15:41;;;;;;;6.53;4.93;;;;;;;16.93;85.95;101332.91;128567;1101;62240;-79
2021/06/04 01:18:33;;;;;;;7.43;5.23;;;;;;;16.90;85.65;101333.33;128540;1101;62198;-80
2021/06/04 01:21:20;;;;;;;6.73;4.93;;;;;;;16.90;85.81;101344.05;128586;1101;62116;-80
2021/06/04 01:23:53;;;;;;;6.50;5.00;;;;;;;16.91;86.03;101335.78;128361;1104;62818;-79
2021/06/04 01:26:25;;;;;;;6.33;4.03;;;;;;;16.94;85.71;101339.09;128611;1101;62619;-79
2021/06/04 01:28:56;;;;;;;7.63;4.60;;;;;;;16.89;85.75;101332.50;128430;1102;62147;-79
2021/06/04 01:31:39;;;;;;;6.93;4.60;;;;;;;16.87;85.89;101326.52;128515;1101;62224;-79
2021/06/04 01:34:21;;;;;;;6.90;5.30;;;;;;;16.86;86.04;101334.75;128577;1101;62205;-78
2021/06/04 01:36:53;;;;;;;9.35;5.75;;;;;;;16.80;85.50;101341.73;128435;1102;62160;-79
2021/06/04 01:39:33;;;;;;;5.33;4.50;;;;;;;16.79;86.02;101337.38;128565;1101;62229;-79
2021/06/04 01:42:05;;;;;;;8.70;5.30;;;;;;;16.77;86.34;101327.89;128633;1101;62072;-80
2021/06/04 01:44:48;;;;;;;8.20;5.57;;;;;;;16.77;86.34;101327.89;128558;1101;62327;-79
2021/06/04 01:47:20;;;;;;;7.50;5.60;;;;;;;16.72;86.54;101328.47;128596;1101;62872;-79
2021/06/04 01:49:50;;;;;;;6.97;5.10;;;;;;;16.73;86.70;101321.28;128401;1104;62091;-80
2021/06/04 01:52:31;;;;;;;8.23;5.27;;;;;;;16.74;86.94;101325.59;128407;1102;62141;-79
2021/06/04 01:55:04;;;;;;;6.53;5.27;;;;;;;16.74;87.00;101326.41;128618;1101;62144;-79
2021/06/04 01:57:39;;;;;;;9.90;5.90;;;;;;;16.73;86.84;101327.45;128514;1101;62036;-79
2021/06/04 02:00:15;;;;;;;7.13;5.43;;;;;;;16.68;86.91;101322.70;128379;1101;62097;-78
2021/06/04 02:02:43;;;;;;;7.70;6.23;;;;;;;16.73;86.92;101329.31;128648;1101;62042;-78
2021/06/04 02:05:12;;;;;;;8.40;6.40;;;;;;;16.71;87.11;101330.33;128545;1101;62828;-78
2021/06/04 02:07:39;;;;;;;9.63;7.03;;;;;;;16.73;87.28;101326.64;128391;1104;62100;-78
2021/06/04 02:10:16;;;;;;;10.57;7.40;;;;;;;16.71;87.13;101319.61;128387;1101;62892;-79
2021/06/04 02:12:48;;;;;;;8.47;6.33;;;;;;;16.71;87.19;101324.97;128429;1104;62918;-79
2021/06/04 02:15:37;;;;;;;8.67;6.53;;;;;;;16.69;86.91;101321.66;128549;1101;62380;-78
2021/06/04 02:18:29;;;;;;;8.03;6.67;;;;;;;16.66;87.11;101318.55;128633;1101;62509;-79
2021/06/04 02:21:04;;;;;;;11.23;6.67;;;;;;;16.60;87.12;101322.05;128433;1104;62034;-79
2021/06/04 02:23:42;;;;;;;9.70;7.00;;;;;;;16.56;86.88;101312.76;128381;1104;63733;-78
2021/06/04 02:26:16;;;;;;;10.60;7.67;;;;;;;16.50;86.86;101317.88;128375;1104;62149;-79
2021/06/04 02:28:47;;;;;;;10.27;7.73;;;;;;;16.47;87.48;101322.81;128599;1101;62385;-78
2021/06/04 02:31:29;;;;;;;9.10;7.50;;;;;;;16.43;87.19;101321.56;128376;1104;61927;-78
2021/06/04 02:34:03;;;;;;;8.77;6.63;;;;;;;16.41;87.22;101323.61;128411;1104;61484;-79
2021/06/04 02:36:34;;;;;;;11.73;6.70;;;;;;;16.36;87.40;101318.00;128532;1101;61996;-78
2021/06/04 02:39:26;;;;;;;9.17;6.90;;;;;;;16.28;87.39;101332.39;128385;1101;62021;-78
2021/06/04 02:42:07;;;;;;;10.27;7.27;;;;;;;16.20;87.52;101327.19;128537;1101;62796;-78
2021/06/04 02:44:42;;;;;;;9.10;7.40;;;;;;;16.15;87.83;101327.78;128404;1101;62525;-79
2021/06/04 02:47:11;;;;;;;;;;;;;;;16.10;88.17;101331.03;128417;1102;62077;-78
2021/06/04 02:49:40;;;;;;;9.17;6.43;;;;;;;16.09;88.50;101332.06;128373;1101;62450;-78
2021/06/04 02:52:40;;;;;;;9.43;7.67;;;;;;;16.13;88.79;101320.95;128579;1101;62010;-79
2021/06/04 02:55:15;;;;;;;9.40;8.50;;;;;;;16.16;88.79;101321.39;128433;1101;63417;-79
2021/06/04 02:57:42;;;;;;;9.40;7.10;;;;;;;16.19;88.83;101323.66;128366;1104;62203;-78
2021/06/04 03:00:24;;;;;;;15.17;7.30;;;;;;;16.22;88.84;101319.80;128546;1101;62670;-78
2021/06/04 03:02:52;;;;;;;12.27;7.67;;;;;;;16.22;88.54;101320.61;128401;1102;62419;-78
2021/06/04 03:05:25;;;;;;;11.53;7.87;;;;;;;16.22;88.56;101317.94;128374;1104;63079;-78
2021/06/04 03:07:53;;;;;;;11.47;7.77;;;;;;;16.22;88.24;101320.61;128469;1101;62320;-79
2021/06/04 03:10:30;;;;;;;9.80;6.60;;;;;;;16.20;88.25;101317.30;128343;1104;62073;-78
2021/06/04 03:12:58;;;;;;;8.10;6.33;;;;;;;16.15;88.12;101318.91;128365;1104;62725;-78
2021/06/04 03:15:39;;;;;;;7.03;6.03;;;;;;;16.11;88.40;101323.84;128401;1101;62070;-79
2021/06/04 03:18:13;;;;;;;6.73;5.47;;;;;;;16.06;88.43;101332.44;128435;1101;62430;-79
2021/06/04 03:20:45;;;;;;;11.50;7.33;;;;;;;16.03;89.01;101326.67;128401;1101;62594;-78
2021/06/04 03:23:16;;;;;;;8.63;6.77;;;;;;;16.02;89.15;101325.00;128511;1101;62219;-79
2021/06/04 03:25:47;;;;;;;9.10;7.50;;;;;;;16.03;89.59;101326.67;128549;1101;62529;-78
2021/06/04 03:28:18;;;;;;;8.25;6.70;;;;;;;16.09;89.73;101325.89;128437;1102;62074;-79
2021/06/04 03:30:47;;;;;;;12.93;7.40;;;;;;;16.14;89.69;101320.77;128381;1104;62275;-79
2021/06/04 03:33:18;;;;;;;8.50;6.70;;;;;;;16.19;89.43;101323.66;128386;1104;62990;-79
2021/06/04 03:35:45;;;;;;;7.83;6.80;;;;;;;16.22;89.36;101320.61;128359;1104;63110;-79
2021/06/04 03:38:14;;;;;;;7.87;7.07;;;;;;;16.25;89.23;101325.56;128409;1101;62009;-79
2021/06/04 03:40:42;;;;;;;9.50;6.87;;;;;;;16.26;89.38;101324.55;128579;1101;62889;-79
2021/06/04 03:43:13;;;;;;;8.00;6.57;;;;;;;16.27;89.13;101333.40;128391;1101;62416;-79
2021/06/04 03:45:42;;;;;;;9.03;6.80;;;;;;;16.27;89.27;101334.22;128371;1105;62558;-78
2021/06/04 03:48:12;;;;;;;8.87;7.23;;;;;;;16.27;88.97;101333.40;128591;1101;62581;-78
2021/06/04 03:50:40;;;;;;;9.83;7.17;;;;;;;16.28;89.28;101330.53;128592;1101;62093;-79
2021/06/04 03:53:09;;;;;;;10.97;7.40;;;;;;;16.33;89.12;101334.47;128635;1101;61962;-79
2021/06/04 03:55:39;;;;;;;9.87;7.80;;;;;;;16.37;89.17;101333.88;128449;1101;61993;-79
2021/06/04 03:58:06;;;;;;;13.87;7.27;;;;;;;16.40;88.95;101333.47;128391;1104;62815;-79
2021/06/04 04:00:42;;;;;;;8.00;6.33;;;;;;;16.42;88.77;101333.28;128586;1101;62935;-78
2021/06/04 04:03:11;;;;;;;9.17;7.20;;;;;;;16.38;88.28;101329.34;128375;1102;62029;-79
2021/06/04 04:05:39;;;;;;;15.30;8.40;;;;;;;16.36;88.24;101337.56;128622;1101;62447;-78
2021/06/04 04:08:08;;;;;;;7.70;6.57;;;;;;;16.36;88.15;101331.39;128537;1101;62026;-79
2021/06/04 04:10:35;;;;;;;7.50;6.63;;;;;;;16.34;88.35;101336.11;128650;1101;62934;-78
2021/06/04 04:13:04;;;;;;;10.83;7.03;;;;;;;16.33;88.33;101337.97;128336;1104;62713;-80
2021/06/04 04:15:31;;;;;;;10.10;7.00;;;;;;;16.35;88.33;101341.28;128431;1104;62163;-80
2021/06/04 04:17:59;;;;;;;8.17;6.53;;;;;;;16.41;88.57;101342.35;128598;1101;62155;-81
2021/06/04 04:20:30;;;;;;;10.47;7.37;;;;;;;16.43;88.47;101337.63;128577;1101;62564;-80
2021/06/04 04:22:59;;;;;;;9.50;8.10;;;;;;;16.46;88.06;101342.57;128536;1101;62045;-80
2021/06/04 04:25:32;;;;;;;7.60;6.70;;;;;;;16.43;88.13;101345.66;128514;1101;62375;-79
2021/06/04 04:28:00;;;;;;;10.17;7.30;;;;;;;16.40;88.17;101343.36;128584;1101;62126;-79
2021/06/04 04:30:27;;;;;;;12.00;7.27;;;;;;;16.39;87.94;101352.44;128418;1101;62149;-79
2021/06/04 04:32:54;;;;;;;10.57;6.67;;;;;;;16.38;88.01;101351.58;128565;1101;62232;-80
2021/06/04 04:35:30;;;;;;;10.37;6.87;;;;;;;16.39;88.04;101347.89;128533;1101;62812;-79
2021/06/04 04:37:58;;;;;;;10.13;7.47;;;;;;;16.44;88.07;101352.66;128357;1104;62120;-79
2021/06/04 04:40:28;;;;;;;8.67;6.97;;;;;;;16.49;88.14;101352.88;128389;1104;62007;-79
2021/06/04 04:42:56;;;;;;;7.83;6.30;;;;;;;16.52;87.59;101352.50;128366;1104;63101;-79
2021/06/04 04:45:25;;;;;;;9.43;6.97;;;;;;;16.54;87.56;101350.45;128557;1101;62236;-79
2021/06/04 04:47:53;;;;;;;9.63;6.83;;;;;;;16.57;87.24;101354.58;128373;1104;62000;-79
2021/06/04 04:50:38;;;;;;;9.73;7.43;;;;;;;16.58;87.50;101357.06;128380;1101;62733;-79
2021/06/04 04:53:06;;;;;;;10.03;6.57;;;;;;;16.63;87.50;101351.11;128422;1101;62483;-80
2021/06/04 04:55:36;;;;;;;8.97;6.63;;;;;;;16.73;87.91;101350.75;128406;1101;62464;-79
2021/06/04 04:58:04;;;;;;;10.53;7.60;;;;;;;16.84;88.04;101350.20;128419;1101;62062;-79
2021/06/04 05:00:32;;;;;;;9.10;7.33;;;;;;;16.98;87.66;101343.87;128333;1104;64182;-79
2021/06/04 05:03:00;;;;;;;9.83;7.43;;;;;;;17.10;87.31;101336.87;128563;1102;61967;-79
2021/06/04 05:05:30;;;;;;;12.27;8.13;;;;;;;17.27;86.66;101345.36;128617;1101;62132;-79
2021/06/04 05:07:57;;;;;;;14.13;7.30;;;;;;;17.41;86.13;101343.55;128348;1101;62149;-79
2021/06/04 05:10:24;;;;;;;8.83;7.57;;;;;;;17.55;85.68;101340.87;128530;1101;62082;-79
2021/06/04 05:12:51;;;;;;;10.03;7.13;;;;;;;17.70;85.47;101344.17;128365;1105;63117;-78
2021/06/04 05:15:26;;;;;;;9.73;6.90;;;;;;;17.81;84.93;101345.41;128533;1101;62370;-82
2021/06/04 05:17:54;;;;;;;11.90;6.90;;;;;;;17.85;84.37;101347.53;128537;1101;61973;-78
2021/06/04 05:20:22;;;;;;;9.77;6.70;;;;;;;17.85;84.10;101349.36;128351;1101;62236;-75
2021/06/04 05:22:54;;;;;;;9.10;6.80;;;;;;;17.81;83.78;101348.94;128466;1102;61957;-75
2021/06/04 05:25:26;;;;;;;12.97;7.20;;;;;;;17.80;83.58;101346.45;128290;1104;62038;-74
2021/06/04 05:27:54;;;;;;;10.13;6.70;;;;;;;17.84;83.24;101348.55;128324;1102;62146;-72
2021/06/04 05:30:25;;;;;;;10.40;6.83;;;;;;;17.90;83.09;101341.53;128306;1104;62425;-76
2021/06/04 05:32:52;;;;;;;8.63;6.10;;;;;;;17.93;83.02;101343.78;128454;1102;62193;-75
2021/06/04 05:35:22;;;;;;;8.37;5.60;;;;;;;18.04;83.06;101339.64;128388;1102;62094;-75
2021/06/04 05:37:49;;;;;;;11.33;6.63;;;;;;;18.10;82.81;101341.50;128333;1104;62825;-75
2021/06/04 05:40:22;;;;;;;8.37;6.40;;;;;;;18.09;82.07;101337.99;128542;1101;62426;-76
2021/06/04 05:42:49;;;;;;;12.63;7.03;;;;;;;18.11;82.51;101343.16;128321;1104;62073;-76
2021/06/04 05:45:20;;;;;;;9.20;6.63;;;;;;;18.20;82.49;101344.58;128499;1101;62205;-79
2021/06/04 05:47:48;;;;;;;7.73;6.43;;;;;;;18.27;82.45;101342.70;128626;1101;61411;-79
2021/06/04 05:50:21;;;;;;;7.20;5.73;;;;;;;18.38;82.23;101345.78;128347;1104;62875;-79
2021/06/04 05:52:49;;;;;;;8.30;5.50;;;;;;;18.44;82.03;101339.56;128355;1101;62227;-79
2021/06/04 05:55:19;;;;;;;9.87;5.93;;;;;;;18.56;81.69;101343.25;128505;1101;62049;-78
2021/06/04 05:57:46;;;;;;;9.00;6.70;;;;;;;18.69;81.83;101343.19;128580;1101;62103;-78
2021/06/04 06:00:42;;;;;;;7.03;5.67;;;;;;;18.80;80.71;101344.42;128423;1101;62075;-79
2021/06/04 06:03:12;;;;;;;7.70;4.87;;;;;;;18.95;80.13;101346.83;128367;1104;62846;-78
2021/06/04 06:05:40;;;;;;;5.83;4.43;;;;;;;19.07;79.70;101345.12;128343;1101;62555;-77
2021/06/04 06:08:07;;;;;;;5.50;4.53;;;;;;;19.21;79.21;101343.19;128541;1102;62966;-78
2021/06/04 06:10:34;;;;;;;6.07;4.57;;;;;;;19.30;78.08;101347.27;128545;1101;62371;-77
2021/06/04 06:13:01;;;;;;;6.70;4.70;;;;;;;19.40;78.00;101345.95;128526;1101;61902;-79
2021/06/04 06:15:29;;;;;;;7.00;4.73;;;;;;;19.47;76.41;101354.81;128432;1104;62863;-83
2021/06/04 06:18:07;;;;;;;47.20;42.60;;;;;;;19.53;76.43;101354.77;128445;1102;62040;-82
2021/06/04 06:21:01;;;;;;;5.10;3.77;;;;;;;19.61;76.59;101363.60;128292;1104;62002;-81
2021/06/04 06:23:32;;;;;;;4.53;3.37;;;;;;;19.61;74.71;101360.91;128673;1101;62030;-82
2021/06/04 06:26:07;;;;;;;6.33;4.60;;;;;;;19.64;74.73;101361.30;128619;1101;62468;-80
2021/06/04 06:28:36;;;;;;;9.65;7.55;;;;;;;19.70;74.12;101365.00;128405;1104;61999;-79
2021/06/04 06:31:12;;;;;;;8.30;4.33;;;;;;;19.79;74.65;101368.27;128675;1101;62236;-79
2021/06/04 06:33:40;;;;;;;6.57;5.03;;;;;;;19.84;74.43;101363.86;128693;1101;62322;-79
2021/06/04 06:36:11;;;;;;;5.37;4.57;;;;;;;19.95;74.60;101365.00;128727;1101;61940;-79
2021/06/04 06:38:38;;;;;;;4.67;3.47;;;;;;;20.08;72.56;101370.30;128410;1104;62060;-78
2021/06/04 06:41:09;;;;;;;6.43;5.07;;;;;;;20.17;72.57;101373.52;128415;1104;62207;-79
2021/06/04 06:43:37;;;;;;;8.93;4.10;;;;;;;20.29;72.31;101374.41;128374;1104;62434;-79
2021/06/04 06:46:07;;;;;;;6.10;3.83;;;;;;;20.42;72.84;101373.45;128696;1101;62224;-79
2021/06/04 06:48:35;;;;;;;3.47;2.87;;;;;;;20.50;70.83;101375.85;128491;1102;62335;-80
2021/06/04 06:51:06;;;;;;;9.47;4.93;;;;;;;20.59;70.82;101384.49;128456;1101;61928;-79
2021/06/04 06:53:39;;;;;;;5.67;4.03;;;;;;;20.69;70.44;101383.98;128730;1101;62789;-80
2021/06/04 06:56:08;;;;;;;6.30;3.70;;;;;;;20.74;69.80;101389.50;128409;1104;62158;-80
2021/06/04 06:58:37;;;;;;;6.33;4.63;;;;;;;20.71;69.26;101377.30;128415;1104;62264;-80
2021/06/04 07:01:05;;;;;;;4.53;3.60;;;;;;;20.75;69.64;101386.59;128437;1102;61942;-80
2021/06/04 07:03:35;;;;;;;9.50;4.20;;;;;;;20.84;69.28;101380.89;128707;1101;62125;-80
2021/06/04 07:06:06;;;;;;;5.57;3.37;;;;;;;20.94;68.02;101381.19;128677;1101;62915;-80
2021/06/04 07:08:34;;;;;;;6.07;3.97;;;;;;;20.92;67.96;101388.68;128716;1101;62042;-79
2021/06/04 07:11:02;;;;;;;5.93;4.40;;;;;;;21.00;68.43;101390.26;128695;1101;62058;-80
2021/06/04 07:13:30;;;;;;;4.80;3.73;;;;;;;21.01;67.22;101391.89;128433;1104;62036;-80
2021/06/04 07:16:02;;;;;;;8.77;7.13;;;;;;;21.10;66.77;101395.91;128390;1101;62275;-79
2021/06/04 07:18:29;;;;;;;7.37;5.07;;;;;;;21.15;66.88;101383.39;128407;1101;62587;-79
2021/06/04 07:20:57;;;;;;;5.00;4.37;;;;;;;21.26;67.21;101389.06;128613;1101;61693;-80
2021/06/04 07:23:27;;;;;;;6.70;4.63;;;;;;;21.36;67.32;101394.73;128731;1101;61950;-80
2021/06/04 07:25:57;;;;;;;9.03;4.50;;;;;;;21.33;66.45;101395.18;128575;1101;62004;-80
2021/06/04 07:28:28;;;;;;;5.17;3.93;;;;;;;21.32;66.84;101394.36;128451;1101;62381;-80
2021/06/04 07:30:57;;;;;;;8.10;3.87;;;;;;;21.27;66.00;101390.70;128486;1102;61934;-80
2021/06/04 07:33:28;;;;;;;4.63;4.10;;;;;;;21.26;66.49;101389.88;128604;1101;61934;-80
2021/06/04 07:35:59;;;;;;;3.60;2.97;;;;;;;21.26;65.76;101383.67;128428;1104;61948;-80
2021/06/04 07:38:27;;;;;;;7.07;3.67;;;;;;;21.34;65.21;101391.45;128700;1101;61981;-80
2021/06/04 07:40:55;;;;;;;4.83;3.57;;;;;;;21.37;65.45;101397.19;128402;1104;62033;-80
2021/06/04 07:43:27;;;;;;;5.17;4.37;;;;;;;21.48;65.61;101387.51;128457;1102;62090;-79
2021/06/04 07:45:55;;;;;;;6.53;3.93;;;;;;;21.60;65.14;101384.85;128627;1101;61848;-77
2021/06/04 07:48:22;;;;;;;8.93;4.87;;;;;;;21.64;64.28;101379.82;128471;1102;62131;-79
2021/06/04 07:50:52;;;;;;;5.57;4.23;;;;;;;21.68;64.84;101389.10;128725;1101;61355;-79
2021/06/04 07:53:22;;;;;;;10.30;4.07;;;;;;;21.78;65.56;101392.03;128489;1102;61977;-79
2021/06/04 07:55:56;;;;;;;5.20;4.27;;;;;;;21.85;64.42;101387.36;128677;1102;62798;-79
2021/06/04 07:58:23;;;;;;;6.00;4.33;;;;;;;21.90;64.26;101384.77;128737;1101;61989;-79
2021/06/04 08:00:50;;;;;;;5.33;3.07;;;;;;;22.03;64.83;101394.53;128721;1101;61914;-79
2021/06/04 08:03:22;;;;;;;4.67;3.63;;;;;;;22.16;65.13;101396.17;128713;1101;62291;-79
2021/06/04 08:05:50;;;;;;;5.50;4.43;;;;;;;22.29;64.46;101387.03;128462;1101;62130;-79
2021/06/04 08:08:18;;;;;;;6.53;4.20;;;;;;;22.39;64.58;101393.48;128737;1101;61986;-79
2021/06/04 08:10:46;;;;;;;7.63;5.03;;;;;;;22.50;64.71;101382.90;128731;1101;62079;-79
2021/06/04 08:13:15;;;;;;;6.77;5.00;;;;;;;22.55;63.67;101385.73;128388;1104;61955;-79
2021/06/04 08:15:49;;;;;;;6.57;3.83;;;;;;;22.62;63.28;101385.59;128667;1101;61973;-79
2021/06/04 08:18:21;;;;;;;4.98;3.15;;;;;;;22.68;60.62;101380.05;128422;1104;62085;-79
2021/06/04 08:20:48;;;;;;;4.40;3.03;;;;;;;22.75;59.80;101391.55;128459;1104;61980;-81
2021/06/04 08:23:20;;;;;;;5.63;3.10;;;;;;;22.79;58.74;101390.01;128704;1101;61662;-80
2021/06/04 08:25:50;;;;;;;6.10;2.70;;;;;;;22.89;58.87;101391.30;128491;1101;61943;-81
2021/06/04 08:28:19;;;;;;;4.17;2.50;;;;;;;23.01;58.19;101389.38;128490;1102;62332;-80
2021/06/04 08:30:47;;;;;;;4.73;2.70;;;;;;;23.08;57.22;101389.23;128459;1104;62479;-81
2021/06/04 08:33:30;;;;;;;5.67;3.23;;;;;;;23.16;58.00;101389.69;128489;1103;61957;-79
2021/06/04 08:35:57;;;;;;;4.93;3.63;;;;;;;23.38;58.70;101391.70;128475;1102;62211;-79
2021/06/04 08:38:28;;;;;;;5.80;3.60;;;;;;;23.58;58.74;101394.75;128468;1102;61990;-80
2021/06/04 08:41:01;;;;;;;8.63;4.40;;;;;;;23.74;56.44;101387.72;128599;1101;62149;-80
2021/06/04 08:44:00;;;;;;;6.40;3.27;;;;;;;23.94;57.45;101376.39;128496;1101;61993;-80
2021/06/04 08:46:32;;;;;;;9.87;3.80;;;;;;;24.07;55.98;101379.84;128514;1103;63259;-80
2021/06/04 08:49:21;;;;;;;7.87;3.80;;;;;;;24.15;56.51;101376.71;128450;1104;62180;-79
2021/06/04 08:51:51;;;;;;;6.47;4.17;;;;;;;24.26;57.46;101378.48;128450;1102;62115;-79
2021/06/04 08:54:31;;;;;;;10.10;4.87;;;;;;;24.40;56.48;101384.39;128711;1101;61750;-79
2021/06/04 08:57:15;;;;;;;8.23;4.27;;;;;;;24.55;55.94;101383.80;128490;1101;62062;-78
2021/06/04 08:59:44;;;;;;;4.07;3.20;;;;;;;24.61;54.24;101380.08;128498;1101;61973;-79
2021/06/04 09:02:22;;;;;;;11.33;7.10;;;;;;;24.74;55.24;101385.13;128704;1101;62179;-79
2021/06/04 09:04:55;;;;;;;12.30;5.27;;;;;;;24.84;54.45;101373.55;128754;1101;61987;-79
2021/06/04 09:07:35;;;;;;;5.40;4.07;;;;;;;24.89;52.33;101375.52;128727;1101;61973;-79
2021/06/04 09:10:23;;;;;;;6.83;5.23;;;;;;;24.92;52.44;101367.67;128722;1101;61987;-80
2021/06/04 09:12:54;;;;;;;5.63;2.93;;;;;;;24.97;51.64;101375.05;128407;1104;61970;-79
2021/06/04 09:15:26;;;;;;;7.63;6.33;;;;;;;25.11;52.93;101368.15;128486;1101;62251;-81
2021/06/04 09:18:01;;;;;;;10.60;7.30;;;;;;;25.17;52.75;101371.74;128424;1104;62000;-80
2021/06/04 09:20:43;;;;;;;41.17;34.40;;;;;;;25.28;53.47;101372.69;128425;1104;61998;-80
2021/06/04 09:23:13;;;;;;;10.67;8.57;;;;;;;25.45;53.64;101376.11;128460;1104;61922;-81
2021/06/04 09:25:42;;;;;;;21.50;15.53;;;;;;;25.58;52.22;101372.95;128399;1104;62418;-81
2021/06/04 09:28:09;;;;;;;9.30;7.90;;;;;;;25.76;53.33;101362.79;128462;1101;61943;-81
2021/06/04 09:30:45;;;;;;;9.80;8.27;;;;;;;25.90;51.91;101361.27;128716;1101;62226;-81
2021/06/04 09:33:18;;;;;;;6.03;4.87;;;;;;;26.02;50.58;101361.90;128436;1104;61417;-82
2021/06/04 09:36:01;;;;;;;7.87;4.60;;;;;;;26.19;49.95;101371.80;128734;1101;61941;-82
2021/06/04 09:38:37;;;;;;;7.13;4.20;;;;;;;26.32;48.58;101368.59;128735;1101;61986;-83
2021/06/04 09:41:19;;;;;;;8.10;3.50;;;;;;;26.39;48.43;101369.16;128699;1101;62184;-83
2021/06/04 09:43:48;;;;;;;30.77;27.60;;;;;;;26.52;48.02;101364.33;128770;1101;61906;-81
2021/06/04 09:46:30;;;;;;;3.83;2.60;;;;;;;26.61;46.78;101368.22;128452;1104;62246;-80
2021/06/04 09:49:00;;;;;;;8.77;3.10;;;;;;;26.68;45.80;101366.06;128728;1101;62195;-79
2021/06/04 09:51:38;;;;;;;8.00;3.17;;;;;;;26.64;45.61;101371.21;128650;1101;62014;-78
2021/06/04 09:54:25;;;;;;;3.40;2.87;;;;;;;26.77;44.88;101366.36;128414;1104;62119;-80
2021/06/04 09:57:15;;;;;;;6.03;3.00;;;;;;;26.98;46.49;101368.05;128808;1101;62017;-80
2021/06/04 09:59:43;;;;;;;10.17;4.50;;;;;;;27.19;46.14;101368.09;128655;1101;61860;-80
2021/06/04 10:03:00;;;;;;;3.50;2.40;;;;;;;27.34;44.73;101370.05;128690;1101;62037;-80
2021/06/04 10:06:16;;;;;;;4.20;3.43;;;;;;;27.33;43.92;101374.70;128017;1108;62879;-81
2021/06/04 10:08:53;;;;;;;4.97;2.73;;;;;;;27.37;44.42;101370.34;127932;1108;62127;-80
2021/06/04 10:11:48;;;;;;;3.90;3.23;;;;;;;27.46;45.49;101367.89;128342;1104;62097;-79
2021/06/04 10:14:20;;;;;;;5.10;3.20;;;;;;;27.71;46.18;101366.23;128351;1104;61997;-79
2021/06/04 10:17:25;;;;;;;4.37;2.20;;;;;;;27.74;44.48;101362.98;128354;1105;62097;-81
2021/06/04 10:19:51;;;;;;;5.47;3.30;;;;;;;27.74;43.41;101360.25;128384;1105;62138;-80
2021/06/04 10:22:32;;;;;;;6.83;3.50;;;;;;;27.77;44.13;101354.23;128336;1104;62346;-80
2021/06/04 10:24:59;;;;;;;4.63;2.83;;;;;;;28.02;45.62;101359.67;128393;1104;62234;-80
2021/06/04 10:27:30;;;;;;;3.70;2.87;;;;;;;28.29;42.13;101366.70;128372;1104;61377;-84
2021/06/04 10:30:09;;;;;;;6.00;2.40;;;;;;;28.58;43.17;101364.14;128344;1105;62147;-74
2021/06/04 10:33:01;;;;;;;4.03;2.60;;;;;;;28.98;42.31;101359.57;128359;1104;62605;-75
2021/06/04 10:35:53;;;;;;;4.57;2.47;;;;;;;29.25;40.95;101367.34;128130;1105;62180;-75
2021/06/04 10:38:29;;;;;;;4.43;2.40;;;;;;;29.29;39.47;101366.80;128353;1104;62164;-75
2021/06/04 10:41:06;;;;;;;4.17;2.10;;;;;;;29.26;38.92;101371.73;128341;1104;62047;-75
2021/06/04 10:43:59;;;;;;;3.83;2.67;;;;;;;29.40;40.41;101360.14;128372;1104;62358;-74
2021/06/04 10:46:42;;;;;;;4.63;3.07;;;;;;;29.60;38.92;101364.61;128394;1104;62860;-73
2021/06/04 10:49:42;;;;;;;4.10;2.20;;;;;;;29.76;39.62;101363.41;128311;1104;62212;-74
2021/06/04 10:52:46;;;;;;;4.30;2.60;;;;;;;29.76;39.76;101368.88;128354;1104;61977;-74
2021/06/04 10:55:20;;;;;;;3.40;2.30;;;;;;;29.83;40.08;101366.60;128324;1104;62166;-75
2021/06/04 10:57:58;;;;;;;3.80;2.37;;;;;;;30.00;39.57;101370.82;128000;1105;62021;-74
2021/06/04 11:00:43;;;;;;;3.30;1.90;;;;;;;30.13;39.02;101355.63;128339;1104;62205;-74
2021/06/04 11:03:14;;;;;;;3.40;2.47;;;;;;;30.30;38.10;101360.67;128353;1105;62303;-75
2021/06/04 11:06:03;;;;;;;4.90;2.90;;;;;;;30.29;38.26;101357.13;128389;1104;62135;-74
2021/06/04 11:08:39;;;;;;;3.63;2.50;;;;;;;30.33;37.13;101363.65;128368;1104;62019;-73
2021/06/04 11:11:30;;;;;;;6.00;3.03;;;;;;;30.35;36.87;101347.75;128627;1101;63115;-74
2021/06/04 11:14:22;;;;;;;6.17;2.90;;;;;;;30.42;37.01;101352.86;128730;1101;62844;-74
2021/06/04 11:17:01;;;;;;;2.93;2.37;;;;;;;30.45;36.99;101355.84;128677;1101;62175;-74
2021/06/04 11:19:37;;;;;;;4.43;2.50;;;;;;;30.40;37.14;101344.94;128631;1101;61980;-75
2021/06/04 11:22:12;;;;;;;4.53;2.83;;;;;;;30.50;36.92;101344.01;128447;1101;62490;-73
2021/06/04 11:25:05;;;;;;;4.97;3.20;;;;;;;30.59;36.47;101349.64;128433;1103;61968;-73
2021/06/04 11:27:41;;;;;;;4.10;2.88;;;;;;;30.64;35.79;101344.89;128407;1101;62831;-73
2021/06/04 11:30:21;;;;;;;4.80;2.63;;;;;;;30.57;35.18;101340.91;128426;1102;61973;-74
2021/06/04 11:33:03;;;;;;;3.27;2.37;;;;;;;30.43;35.24;101344.38;128451;1102;62065;-74
2021/06/04 11:35:41;;;;;;;3.53;2.37;;;;;;;30.39;36.92;101337.84;128632;1101;62028;-74
2021/06/04 11:38:12;;;;;;;4.57;2.90;;;;;;;30.58;37.31;101345.25;128672;1101;61972;-74
2021/06/04 11:40:44;;;;;;;2.87;2.20;;;;;;;30.81;36.83;101333.42;128672;1101;63289;-74
2021/06/04 11:43:14;;;;;;;4.53;2.80;;;;;;;31.06;37.42;101339.67;128666;1101;61978;-73
2021/06/04 11:45:45;;;;;;;4.27;2.80;;;;;;;31.04;36.26;101336.42;128692;1101;62110;-74
2021/06/04 11:48:27;;;;;;;3.63;2.83;;;;;;;31.02;35.11;101333.97;128707;1101;62199;-74